Terminal Aerodrome Forecast
Issued by NWS

Home | Current Version | Previous Version | Text Only | Print | Product List | Glossary On
Versions: 1 2 3 4 5 6 7 8 9 10 11 12 13 14 15
000
FTUS42 TJSJ 011739
TAFJSJ
TAF
TJSJ 011739Z 0118/0218 10013KT P6SM SCT026 SCT250
     FM012230 09010KT P6SM FEW025 SCT250
     FM021300 07016G22KT P6SM SCT025=

USA.gov is the U.S. government's official web portal to all federal, state and local government web resources and services.